Latest Weather Observations for Port Augusta

IDS60801

Issued at 8:02 pm CST Sunday 25 June 2017 (issued every 30 minutes, with the page automatically refreshed every 10 minutes)

About weather observations | Map of weather stations | Latest weather observations for SA | Other Formats
Station Details ID: 018201 Name: PORT AUGUSTA AERO Lat: -32.51 Lon: 137.72 Height: 13.97 m
Data from the previous 72 hours. | See also: Recent months at Port Augusta
Date/Time
CST
Temp
°C
App
Temp
°C
Dew
Point
°C
Rel
Hum
%
Delta-T
°C
Wind Press
QNH
hPa
Press
MSL
hPa
Rain since
9am
mm
Dir  Spd
km/h
Gust
km/h
Spd
kts
Gust
kts
25/08:00pm 12.3 8.8 7.4 72 2.4 SSE 15 17 8 9 1023.1 1023.1 0.0
25/07:30pm 12.4 9.0 7.5 72 2.4 SSE 15 20 8 11 1023.0 1023.0 0.0
25/07:00pm 12.0 9.7 7.5 74 2.2 ESE 9 13 5 7 1022.7 1022.7 0.0
25/06:30pm 12.9 10.4 8.2 73 2.3 SE 11 17 6 9 1022.5 1022.5 0.0
25/06:00pm 12.8 10.3 8.1 73 2.3 SE 11 15 6 8 1021.9 1021.9 0.0
25/05:30pm 13.3 10.4 8.2 71 2.5 SE 13 17 7 9 1021.5 1021.5 0.0
25/05:00pm 13.9 9.5 7.2 64 3.3 SE 20 28 11 15 1021.4 1021.4 0.0
25/04:30pm 14.5 10.5 6.8 60 3.7 SSE 17 22 9 12 1021.5 1021.5 0.0
25/04:00pm 16.3 11.3 4.4 45 5.6 SSW 20 30 11 16 1021.3 1021.3 0.0
25/03:30pm 16.3 12.4 7.0 54 4.6 SSE 17 20 9 11 1021.3 1021.3 0.0
25/03:00pm 17.5 12.5 4.5 42 6.1 SSW 20 30 11 16 1021.2 1021.2 0.0
25/02:30pm 17.4 13.4 5.0 44 5.9 SW 15 30 8 16 1021.1 1021.1 0.0
25/02:00pm 16.6 12.2 4.9 46 5.6 SW 17 24 9 13 1021.4 1021.4 0.0
25/01:30pm 17.2 13.0 5.5 46 5.6 SW 17 22 9 12 1021.5 1021.5 0.0
25/01:00pm 16.5 11.6 4.9 46 5.5 SW 20 26 11 14 1021.8 1021.8 0.0
25/12:30pm 17.3 11.4 3.9 41 6.2 WSW 24 32 13 17 1021.8 1021.8 0.0
25/12:00pm 16.7 11.9 5.6 48 5.3 SW 20 24 11 13 1022.1 1022.1 0.0
25/11:30am 16.3 11.9 6.4 52 4.8 SSW 19 33 10 18 1022.4 1022.4 0.0
25/11:00am 15.3 13.2 8.1 62 3.6 SW 9 15 5 8 1022.9 1022.9 0.0
25/10:30am 15.0 12.1 8.3 64 3.4 SSW 13 17 7 9 1023.1 1023.1 0.0
25/10:00am 13.7 10.4 9.7 77 2.1 SW 17 20 9 11 1023.0 1023.0 0.0
25/09:30am 12.5 9.7 10.0 85 1.3 WSW 15 20 8 11 1022.8 1022.8 0.0
25/09:00am 11.5 9.4 9.9 90 0.8 WSW 11 13 6 7 1022.4 1022.4 0.0
25/08:35am 10.2 7.7 9.6 96 0.3 WSW 13 17 7 9 1022.2 1022.2 0.0
25/08:30am 9.8 7.2 9.2 96 0.3 WSW 13 15 7 8 1022.0 1022.0 0.0
25/08:15am 8.9 6.9 8.5 97 0.2 WSW 9 11 5 6 1021.8 1021.8 0.0
25/08:00am 8.8 7.1 8.5 98 0.1 W 7 7 4 4 1021.6 1021.6 0.0
25/07:30am 8.5 7.7 8.2 98 0.1 W 2 7 1 4 1021.2 1021.2 0.0
25/07:00am 8.8 7.1 8.5 98 0.1 WNW 7 9 4 5 1020.9 1020.9 0.0
25/06:58am 8.8 7.1 8.5 98 0.1 WNW 7 11 4 6 1020.9 1020.9 0.0
25/06:51am 8.8 6.8 8.5 98 0.1 NNW 9 11 5 6 1020.7 1020.7 0.0
25/06:30am 8.5 7.0 8.4 99 0.0 NE 6 9 3 5 1020.3 1020.3 0.0
25/06:00am 8.7 7.6 8.6 99 0.0 S 4 6 2 3 1019.9 1019.9 0.0
25/05:30am 7.6 5.8 7.3 98 0.1 S 6 9 3 5 1019.9 1019.9 0.0
25/05:03am 6.2 4.1 5.6 96 0.3 S 6 9 3 5 1019.6 1019.6 0.0
25/05:00am 6.0 4.2 5.3 95 0.3 S 4 6 2 3 1019.7 1019.7 0.0
25/04:59am 5.8 3.9 4.9 94 0.4 S 4 9 2 5 1019.7 1019.7 0.0
25/04:49am 6.7 4.0 5.8 94 0.4 SSW 9 11 5 6 1019.7 1019.7 0.0
25/04:43am 6.3 3.9 5.1 92 0.5 SSW 7 11 4 6 1019.7 1019.7 0.0
25/04:30am 9.2 7.8 8.7 97 0.2 S 6 7 3 4 1019.6 1019.6 0.0
25/04:00am 7.9 5.9 7.1 95 0.4 SE 7 9 4 5 1019.7 1019.7 0.0
25/03:30am 7.6 6.1 6.9 95 0.3 SSE 4 7 2 4 1019.6 1019.6 0.0
25/03:00am 6.2 4.0 5.5 95 0.3 SW 6 7 3 4 1019.6 1019.6 0.0
25/02:56am 6.3 4.0 5.7 96 0.3 SW 7 7 4 4 1019.6 1019.6 0.0
25/02:46am 6.3 4.0 5.9 97 0.2 SW 7 11 4 6 1019.5 1019.5 0.0
25/02:30am 5.7 3.3 5.1 96 0.3 SSW 7 9 4 5 1019.5 1019.5 0.0
25/02:05am 6.8 5.9 5.9 94 0.4 CALM 0 0 0 0 1019.4 1019.4 0.0
25/02:00am 7.1 6.3 6.4 95 0.3 CALM 0 0 0 0 1019.4 1019.4 0.0
25/01:35am 8.8 8.4 8.2 96 0.3 CALM 0 0 0 0 1019.3 1019.3 0.0
25/01:30am 9.9 9.8 9.3 96 0.3 CALM 0 0 0 0 1019.3 1019.3 0.0
25/01:00am 9.1 7.9 8.0 93 0.5 S 4 7 2 4 1019.4 1019.4 0.0
25/12:30am 9.8 6.6 8.6 92 0.6 SSW 15 17 8 9 1019.2 1019.2 0.0
25/12:00am 10.2 7.2 9.1 93 0.5 SW 15 19 8 10 1019.3 1019.3 0.0
 
Date/Time
CST
Temp
°C
App
Temp
°C
Dew
Point
°C
Rel
Hum
%
Delta-T
°C
Wind Press
QNH
hPa
Press
MSL
hPa
Rain since
9am
mm
Dir  Spd
km/h
Gust
km/h
Spd
kts
Gust
kts
24/11:30pm 10.1 6.6 8.7 91 0.7 SW 17 19 9 10 1019.4 1019.4 0.0
24/11:00pm 10.6 9.2 7.3 80 1.6 NW 4 11 2 6 1019.5 1019.5 0.0
24/10:30pm 12.5 11.2 9.3 81 1.6 SSW 6 9 3 5 1019.4 1019.4 0.0
24/10:00pm 13.3 10.3 10.8 85 1.3 SSE 17 24 9 13 1019.0 1019.0 0.0
24/09:30pm 13.5 12.5 10.3 81 1.7 WSW 6 13 3 7 1019.0 1019.0 0.0
24/09:00pm 12.9 11.7 9.4 79 1.8 SW 6 9 3 5 1018.8 1018.8 0.0
24/08:30pm 12.4 9.7 9.1 80 1.7 S 13 17 7 9 1018.6 1018.6 0.0
24/08:00pm 13.0 10.8 7.7 70 2.6 SSE 9 13 5 7 1018.5 1018.5 0.0
24/07:30pm 12.8 10.1 7.3 69 2.7 SW 11 13 6 7 1018.4 1018.4 0.0
24/07:00pm 13.8 9.8 8.2 69 2.8 SSE 19 24 10 13 1018.0 1018.0 0.0
24/06:30pm 14.4 10.3 7.9 65 3.2 SE 19 26 10 14 1017.7 1017.7 0.0
24/06:00pm 14.2 10.7 8.6 69 2.8 SE 17 22 9 12 1017.5 1017.5 0.0
24/05:30pm 14.5 10.2 9.3 71 2.7 SE 22 32 12 17 1017.3 1017.3 0.0
24/05:00pm 15.0 10.4 9.6 70 2.8 SE 24 32 13 17 1017.2 1017.2 0.0
24/04:30pm 15.2 11.5 11.4 78 2.0 SE 22 30 12 16 1017.1 1017.1 0.0
24/04:00pm 15.5 10.5 10.9 74 2.4 SSE 28 35 15 19 1017.0 1017.0 0.0
24/03:30pm 16.9 12.7 11.2 69 3.1 SE 24 32 13 17 1016.8 1016.8 0.0
24/03:00pm 17.6 13.8 11.2 66 3.5 SE 22 28 12 15 1016.8 1016.8 0.0
24/02:30pm 17.7 13.7 10.6 63 3.8 SE 22 28 12 15 1017.0 1017.0 0.0
24/02:00pm 19.1 15.9 9.9 55 4.9 SE 17 20 9 11 1017.1 1017.1 0.0
24/01:30pm 20.4 18.3 6.0 39 7.2 NNW 6 11 3 6 1017.3 1017.3 0.0
24/01:00pm 21.1 19.6 8.4 44 6.7 N 6 13 3 7 1017.7 1017.7 0.0
24/12:30pm 18.9 17.3 8.8 52 5.3 ENE 7 11 4 6 1018.2 1018.2 0.0
24/12:00pm 18.2 16.4 9.5 57 4.6 SE 9 13 5 7 1018.7 1018.7 0.0
24/11:30am 17.1 15.5 8.8 58 4.3 SE 7 11 4 6 1019.0 1019.0 0.0
24/11:00am 16.1 15.4 11.5 74 2.5 SE 6 9 3 5 1019.5 1019.5 0.0
24/10:30am 14.0 13.6 11.0 82 1.6 SSE 4 7 2 4 1019.6 1019.6 0.0
24/10:00am 12.3 11.0 9.9 85 1.2 SW 7 9 4 5 1019.9 1019.9 0.0
24/09:30am 11.4 10.1 10.0 91 0.7 SW 7 9 4 5 1019.7 1019.7 0.0
24/09:00am 9.1 7.5 8.2 94 0.4 W 6 7 3 4 1019.3 1019.3 0.4
24/08:30am 9.0 7.4 8.2 95 0.4 NW 6 7 3 4 1019.4 1019.4 0.4
24/08:00am 7.9 5.8 6.8 93 0.5 SE 7 9 4 5 1018.9 1018.9 0.4
24/07:30am 7.5 5.0 6.6 94 0.4 SE 9 11 5 6 1018.8 1018.8 0.4
24/07:00am 7.3 5.1 6.2 93 0.5 SE 7 9 4 5 1018.8 1018.8 0.4
24/06:30am 7.4 4.8 6.3 93 0.5 SE 9 9 5 5 1018.6 1018.6 0.4
24/06:00am 6.8 4.4 5.4 91 0.6 SE 7 9 4 5 1018.4 1018.4 0.4
24/05:30am 7.2 5.9 5.8 91 0.6 SSW 2 6 1 3 1018.3 1018.3 0.4
24/05:00am 8.5 6.6 7.6 94 0.4 SSE 7 9 4 5 1018.1 1018.1 0.2
24/04:30am 8.2 5.9 7.4 95 0.4 SSE 9 13 5 7 1018.0 1018.0 0.2
24/04:00am 9.5 8.0 8.3 92 0.6 E 6 7 3 4 1018.2 1018.2 0.2
24/03:30am 10.8 9.0 9.4 91 0.7 SE 9 13 5 7 1018.3 1018.3 0.2
24/03:00am 9.7 7.1 7.6 87 1.0 ESE 11 15 6 8 1018.2 1018.2 0.2
24/02:30am 9.7 7.9 7.8 88 0.9 WSW 7 9 4 5 1018.6 1018.6 0.2
24/02:00am 8.7 6.4 7.3 91 0.7 SW 9 11 5 6 1018.6 1018.6 0.2
24/01:30am 8.4 6.4 7.2 92 0.6 WNW 7 9 4 5 1018.5 1018.5 0.2
24/01:00am 8.3 5.1 6.9 91 0.7 SW 13 15 7 8 1018.6 1018.6 0.2
24/12:30am 8.7 6.7 7.0 89 0.8 NNW 7 11 4 6 1018.5 1018.5 0.2
24/12:00am 9.2 7.5 7.5 89 0.8 SW 6 7 3 4 1018.8 1018.8 0.2
 
Date/Time
CST
Temp
°C
App
Temp
°C
Dew
Point
°C
Rel
Hum
%
Delta-T
°C
Wind Press
QNH
hPa
Press
MSL
hPa
Rain since
9am
mm
Dir  Spd
km/h
Gust
km/h
Spd
kts
Gust
kts
23/11:30pm 9.1 6.7 7.1 87 0.9 NNW 9 13 5 7 1019.2 1019.2 0.2
23/11:00pm 10.6 10.2 8.4 86 1.1 CALM 0 0 0 0 1019.4 1019.4 0.2
23/10:30pm 10.9 10.5 8.3 84 1.3 CALM 0 0 0 0 1019.3 1019.3 0.2
23/10:00pm 11.2 9.5 8.4 83 1.4 SW 7 9 4 5 1019.4 1019.4 0.2
23/09:30pm 11.2 8.3 8.2 82 1.5 SW 13 15 7 8 1019.5 1019.5 0.2
23/09:00pm 11.1 9.0 8.1 82 1.5 WSW 9 13 5 7 1019.1 1019.1 0.2
23/08:30pm 11.4 8.5 8.1 80 1.6 SW 13 15 7 8 1018.8 1018.8 0.2
23/08:00pm 11.5 9.6 8.9 84 1.3 SW 9 9 5 5 1018.6 1018.6 0.2
23/07:30pm 11.7 8.9 8.7 82 1.5 SW 13 15 7 8 1018.6 1018.6 0.2
23/07:00pm 11.8 9.4 8.8 82 1.5 WSW 11 15 6 8 1018.1 1018.1 0.2
23/06:30pm 11.8 11.7 9.5 86 1.2 CALM 0 0 0 0 1017.9 1017.9 0.2
23/06:00pm 11.9 11.7 9.1 83 1.4 CALM 0 0 0 0 1018.0 1018.0 0.2
23/05:30pm 12.6 12.5 9.4 81 1.6 CALM 0 0 0 0 1018.4 1018.4 0.2
23/05:00pm 13.3 11.9 9.7 79 1.8 SSW 7 7 4 4 1018.5 1018.5 0.2
23/04:30pm 13.6 12.3 9.8 78 1.9 WSW 7 9 4 5 1018.7 1018.7 0.2
23/04:00pm 14.0 12.8 10.2 78 2.0 SW 7 9 4 5 1018.7 1018.7 0.2
23/03:30pm 13.6 13.8 10.6 82 1.6 CALM 0 0 0 0 1018.6 1018.6 0.2
23/03:00pm 13.4 13.4 9.8 79 1.8 CALM 0 2 0 1 1018.7 1018.7 0.2
23/02:30pm 13.0 10.4 9.3 78 1.9 N 13 15 7 8 1018.8 1018.8 0.2
23/02:00pm 13.6 10.8 8.4 71 2.6 NNW 13 15 7 8 1019.2 1019.2 0.0
23/01:30pm 13.5 10.3 8.6 72 2.4 NNW 15 19 8 10 1019.2 1019.2 0.0
23/01:00pm 14.5 11.4 7.3 62 3.5 N 13 17 7 9 1019.7 1019.7 0.0
23/12:30pm 15.4 10.8 5.6 52 4.7 N 19 28 10 15 1020.2 1020.2 0.0
23/12:00pm 16.1 12.3 5.7 50 5.0 NNW 15 20 8 11 1020.4 1020.4 0.0
23/11:30am 14.9 11.1 5.7 54 4.4 NNW 15 19 8 10 1020.7 1020.7 0.0
23/11:00am 15.1 11.1 5.0 51 4.8 NNW 15 20 8 11 1020.8 1020.8 0.0
23/10:30am 14.5 10.5 4.8 52 4.5 NW 15 20 8 11 1021.2 1021.2 0.0
23/10:00am 13.4 9.8 5.1 57 3.9 WNW 13 17 7 9 1021.1 1021.1 0.0
23/09:30am 13.0 9.3 4.7 57 3.8 WNW 13 15 7 8 1020.6 1020.6 0.0
23/09:00am 10.8 8.0 5.1 68 2.6 W 9 11 5 6 1020.6 1020.6 0.0
23/08:30am 10.3 6.9 4.2 66 2.7 WNW 11 13 6 7 1020.4 1020.4 0.0
23/08:00am 10.2 7.3 4.6 68 2.5 W 9 11 5 6 1020.2 1020.2 0.0
23/07:30am 9.0 5.9 3.8 70 2.3 W 9 11 5 6 1020.2 1020.2 0.0
23/07:00am 8.4 4.9 3.7 72 2.0 W 11 13 6 7 1019.9 1019.9 0.0
23/06:30am 8.1 5.0 3.4 72 2.0 WSW 9 11 5 6 1019.7 1019.7 0.0
23/06:00am 7.4 3.9 3.5 76 1.7 W 11 13 6 7 1019.6 1019.6 0.0
23/05:30am 7.9 4.4 3.6 74 1.8 WSW 11 13 6 7 1019.2 1019.2 0.0
23/05:00am 7.8 4.8 4.2 78 1.6 WSW 9 13 5 7 1019.1 1019.1 0.0
23/04:30am 7.5 6.1 3.7 77 1.6 CALM 0 0 0 0 1019.3 1019.3 0.0
23/04:00am 7.5 6.1 3.6 76 1.7 CALM 0 0 0 0 1019.6 1019.6 0.0
23/03:30am 8.0 5.9 3.7 74 1.8 WSW 4 6 2 3 1019.6 1019.6 0.0
23/03:00am 8.8 6.3 3.6 70 2.2 WSW 6 9 3 5 1019.9 1019.9 0.0
23/02:30am 7.7 5.9 3.4 74 1.8 WSW 2 6 1 3 1020.4 1020.4 0.0
23/02:00am 8.1 5.0 3.4 72 2.0 WSW 9 11 5 6 1020.8 1020.8 0.0
23/01:30am 8.4 5.3 3.5 71 2.1 W 9 11 5 6 1020.5 1020.5 0.0
23/01:00am 8.2 5.2 3.9 74 1.9 W 9 11 5 6 1020.5 1020.5 0.0
23/12:30am 8.7 5.9 3.3 69 2.3 W 7 9 4 5 1020.5 1020.5 0.0
23/12:00am 8.5 5.5 3.9 73 2.0 WSW 9 9 5 5 1020.8 1020.8 0.0
 
Date/Time
CST
Temp
°C
App
Temp
°C
Dew
Point
°C
Rel
Hum
%
Delta-T
°C
Wind Press
QNH
hPa
Press
MSL
hPa
Rain since
9am
mm
Dir  Spd
km/h
Gust
km/h
Spd
kts
Gust
kts
22/11:30pm 8.6 5.2 4.0 73 2.0 WSW 11 13 6 7 1021.1 1021.1 0.0
22/11:00pm 8.7 6.6 3.9 72 2.1 SW 4 7 2 4 1021.2 1021.2 0.0
22/10:30pm 8.6 5.6 4.0 73 2.0 WSW 9 9 5 5 1021.5 1021.5 0.0
22/10:00pm 8.6 5.6 4.0 73 2.0 WSW 9 11 5 6 1021.8 1021.8 0.0
22/09:30pm 8.7 5.7 3.9 72 2.1 WSW 9 11 5 6 1021.9 1021.9 0.0
22/09:00pm 9.4 7.0 4.2 70 2.3 WSW 6 7 3 4 1021.9 1021.9 0.0
22/08:30pm 10.0 7.5 4.0 66 2.6 WSW 6 7 3 4 1022.2 1022.2 0.0

Other Formats:

Comma delimited format used in spreadsheet applications
http://www.bom.gov.au/fwo/IDS60801/IDS60801.95666.axf

JavaScript Object Notation format (JSON) in row-major order
http://www.bom.gov.au/fwo/IDS60801/IDS60801.95666.json